Polarstern — DBLK — position and weather

sailwx.info

Track history (hours):
 
Tides and Currents Weather Stations Pressure Air Temp Water Temp Dewpoint Dewpoint Depression Visibility Wind Speed Wind Dir Waves Ship Positions

Oceanographic research ship Polarstern (Germany)

Detailed information on ship capabilities available from University of Delaware's Ocean Information Center and ARCUS's ALIAS (Arctic Logistics Information and Support) project.

Last reported at 2019-Jan-23 17:00 UTC. Time now 2019-Jan-23 18:08 UTC.
Position S 65°42' W 036°42'.

Length 117.9 m; beam 25 m; draft 10.7 m.

Type: Other ship. MMSI: 211202460.

Wind from 240 at 16 knots

Barometer 984.5 mb
Air temperature -1.9 ° C
Dewpoint -3.6 ° C
Water temperature -1.0 ° C

Date/timePositionNaut miles runAvg speedWind from/ knotsBaromVisibWave heightAir tempDewpointWater temp
2019-Jan-23 17:00S 65°42' W 036°42'0 0.0 240 / 16984.5 -1.9-3.6-1.0
2019-Jan-23 16:00S 65°42' W 036°42'0 0.0 240 / 14984.6 -2.1-3.7-1.0
2019-Jan-23 15:00S 65°42' W 036°42'0 0.0 250 / 16984.710.8 -1.9-3.8-1.1
2019-Jan-23 14:00S 65°42' W 036°42'0 0.0 240 / 14984.9 -1.9-3.8-1.0
2019-Jan-23 13:00S 65°42' W 036°42'0 0.0 220 / 16984.8 -1.9-4.3-1.1
2019-Jan-23 12:00S 65°42' W 036°42'0 0.0 230 / 14984.810.8 -1.6-4.2-1.0
2019-Jan-23 11:00S 65°42' W 036°42'0 0.0 230 / 14984.8 -1.8-4.8-1.1
2019-Jan-23 10:00S 65°42' W 036°42'2 2.5 220 / 14984.9 -1.9-4.5-1.1
2019-Jan-23 09:00S 65°42' W 036°36'0 0.0 220 / 14985.210.8 -2.1-4.7-1.1
2019-Jan-23 08:00S 65°42' W 036°36'0 0.0 240 / 16985.2 -2.0-5.1-1.0
2019-Jan-23 07:00S 65°42' W 036°36'0 0.0 230 / 14985.4 -2.0-4.8-1.1
2019-Jan-23 06:00S 65°42' W 036°36'0 0.0 220 / 14985.510.8 -2.2-5.1-1.1
2019-Jan-23 05:00S 65°42' W 036°36'0 0.0 240 / 16985.7 -2.6-5.4-1.1
2019-Jan-23 04:00S 65°42' W 036°36'2 2.5 240 / 19985.7 -2.7-5.5-1.1
2019-Jan-23 03:00S 65°42' W 036°30'1212.3 230 / 21985.5 -2.5-5.7-1.1
2019-Jan-23 02:00S 65°42' W 036°00'1413.7 250 / 21985.4 -2.3-5.0-0.9
2019-Jan-23 01:00S 65°48' W 035°30'10 9.8 250 / 23985.4 -2.4-4.7-0.9
2019-Jan-23 00:00S 65°48' W 035°06'1212.3 250 / 23985.1 -2.4-5.2-0.8
2019-Jan-22 23:00S 65°48' W 034°36'5 4.9 250 / 23984.8 -2.3-5.2-0.8
2019-Jan-22 22:00S 65°48' W 034°24'0 0.0 250 / 21985.1 -2.1-5.0-0.7
2019-Jan-22 21:00S 65°48' W 034°24'0 0.0 250 / 25985.2 -2.0-6.1-0.7
2019-Jan-22 20:00S 65°48' W 034°24'0 0.0 250 / 25985.1 -2.1-6.0-0.7
2019-Jan-22 19:00S 65°48' W 034°24'0 0.0 250 / 25985.1 -2.0-5.3-0.6
2019-Jan-22 18:00S 65°48' W 034°24'1211.5 270 / 25984.510.8 -2.4-5.6-0.7
2019-Jan-22 17:00S 65°54' W 034°00'10 9.8 270 / 27983.6 -2.5-7.1-0.7
2019-Jan-22 16:00S 65°54' W 033°36'1111.5 260 / 27983.3 -2.4-6.1-0.6
2019-Jan-22 15:00S 66°00' W 033°12'1212.2 270 / 27982.710.8 -2.2-4.8-0.5
2019-Jan-22 14:00S 66°00' W 032°42'1111.4 270 / 27982.2 -2.1-5.6-0.6
2019-Jan-22 13:00S 66°06' W 032°18'10 9.7 270 / 27981.3 -1.7-5.0-0.6
2019-Jan-22 12:00S 66°06' W 031°54'10 9.7 270 / 27980.910.8 -1.8-5.0-0.7
2019-Jan-22 11:00S 66°06' W 031°30'1111.4 270 / 29980.3 -1.8-4.8-0.6
2019-Jan-22 10:00S 66°12' W 031°06'7 7.3 270 / 29980.0 -1.8-4.7-0.6
2019-Jan-22 09:00S 66°12' W 030°48'1111.4 270 / 29979.5 5.4 -1.7-5.1-0.7
2019-Jan-22 08:00S 66°18' W 030°24'10 9.6 270 / 29978.7 -1.7-4.8-0.5
2019-Jan-22 07:00S 66°18' W 030°00'10 9.6 280 / 31978.4 -1.8-4.7-0.3
2019-Jan-22 06:00S 66°18' W 029°36'9 9.4 270 / 31977.2 5.4 -1.7-4.6-0.3
2019-Jan-22 05:00S 66°24' W 029°18'10 9.6 270 / 31976.8 -1.6-4.3-0.3
2019-Jan-22 04:00S 66°24' W 028°54'10 9.6 270 / 33976.1 -1.5-3.4-0.3
2019-Jan-22 03:00S 66°24' W 028°30'9 9.4 270 / 31975.3 -1.1-3.0-0.2
2019-Jan-22 02:00S 66°30' W 028°12'10 9.6 270 / 31973.7 -0.9-2.5-0.0
2019-Jan-22 01:00S 66°30' W 027°48'9 9.3 270 / 31972.9 -0.8-2.4-0.0
2019-Jan-22 00:00S 66°36' W 027°30'10 9.5 280 / 29971.7 -0.6-2.2-0.0
2019-Jan-21 23:00S 66°36' W 027°06'0 0.0 270 / 31971.1 -0.5-2.1 0.1
2019-Jan-21 22:00S 66°36' W 027°06'0 0.0 270 / 31970.1 -0.5-1.9 0.2
2019-Jan-21 21:00S 66°36' W 027°06'0 0.0 270 / 29969.2 -0.4-1.9 0.2
2019-Jan-21 20:00S 66°36' W 027°06'0 0.0 280 / 31968.0 -0.4-1.7 0.2
2019-Jan-21 19:00S 66°36' W 027°06'2 2.4 270 / 31967.5 -0.5-1.6 0.2
2019-Jan-21 18:00S 66°36' W 027°00'2 2.4 280 / 29966.2 5.4 -0.2-1.2 0.2
2019-Jan-21 17:00S 66°36' W 027°06'0 0.0 280 / 31965.1 -0.2-1.6 0.2
2019-Jan-21 16:00S 66°36' W 027°06'0 0.0 270 / 31963.9 -0.2-1.2 0.2
2019-Jan-21 15:00S 66°36' W 027°06'1212.2 280 / 31962.9 2.2 -0.2-1.0 0.2
2019-Jan-21 14:00S 66°48' W 027°12'1212.2 280 / 31960.6 -0.1-1.3 0.2
2019-Jan-21 13:00S 67°00' W 027°18'1818.2 280 / 29958.1 -0.1-0.9 0.2
2019-Jan-21 12:00S 67°18' W 027°24'1212.2 280 / 27956.5 2.2 -0.1-1.3-0.1
2019-Jan-21 11:00S 67°30' W 027°30'1212.2 280 / 25953.7 -0.0-0.8 0.3
2019-Jan-21 10:00S 67°42' W 027°36'1818.1 280 / 23952.7 -0.1-1.1 0.2
2019-Jan-21 09:00S 68°00' W 027°42'1212.2 280 / 25951.2 2.2 -0.5-1.2 0.1
2019-Jan-21 08:00S 68°12' W 027°48'1212.0 280 / 19949.3 -0.2-0.7 0.1
2019-Jan-21 07:00S 68°24' W 027°48'1212.2 270 / 16948.4 -0.4-0.7 0.2
2019-Jan-21 06:00S 68°36' W 027°54'1212.2 270 / 12946.810.8 -0.5-0.8-0.0
2019-Jan-21 05:00S 68°48' W 028°00'1212.2 270 / 8946.2 -0.5-0.7-0.0
2019-Jan-21 04:00S 69°00' W 028°06'1212.2 150 / 6945.7 -0.4-0.8-0.0
2019-Jan-21 03:00S 69°12' W 028°12'1212.2 130 / 12945.0 -0.3-0.7-0.1
2019-Jan-21 02:00S 69°24' W 028°18'1212.0 130 / 16945.2 -0.3-0.8-0.1
2019-Jan-21 01:00S 69°36' W 028°18'1212.2 140 / 21945.1 -0.3-0.6-0.1
2019-Jan-21 00:00S 69°48' W 028°24'1212.2 130 / 23945.6 -0.1-0.5-0.2
2019-Jan-20 23:00S 70°00' W 028°30'6 6.3 130 / 25946.4 -0.2-0.7-0.1
2019-Jan-20 22:00S 70°06' W 028°36'1212.2 130 / 27947.1 -0.3-0.9-0.1
2019-Jan-20 21:00S 70°18' W 028°42'1212.0 130 / 29948.3 -0.1-1.1-0.2
2019-Jan-20 20:00S 70°30' W 028°42'1212.2 120 / 29949.4 -0.0-1.2 0.1
2019-Jan-20 19:00S 70°42' W 028°48'6 6.0 120 / 29950.1 -0.0-1.6-0.0
2019-Jan-20 18:00S 70°48' W 028°48'6 6.0 110 / 31951.5 2.2 0.1-1.7 0.1
2019-Jan-20 17:00S 70°54' W 028°48'2 2.0 100 / 33951.4 0.4-1.7 0.1
2019-Jan-20 16:00S 70°54' W 028°54'2 2.0 110 / 31951.7 0.3-1.9 0.1
2019-Jan-20 15:00S 70°54' W 028°48'0 0.0 100 / 31951.4 2.2 0.1-1.4 0.1
2019-Jan-20 14:00S 70°54' W 028°48'0 0.0 110 / 29951.7 -0.1-1.5 0.1
2019-Jan-20 13:00S 70°54' W 028°48'4 3.9 100 / 31952.2 0.3-1.7 0.1
2019-Jan-20 12:00S 70°54' W 029°00'2 2.0 110 / 29952.0 2.2 -0.2-1.0-0.0
2019-Jan-20 11:00S 70°54' W 028°54'2 2.0 100 / 29951.3 0.4-1.4-0.0
2019-Jan-20 10:00S 70°54' W 029°00'0 0.0 110 / 27951.7 -0.0-1.3-0.0
2019-Jan-20 09:00S 70°54' W 029°00'0 0.0 110 / 25951.9 2.2 -0.3-1.1 0.1
2019-Jan-20 08:00S 70°54' W 029°00'2 2.0 110 / 25951.9 -0.0-1.1-0.0
2019-Jan-20 07:00S 70°54' W 028°54'0 0.0 120 / 23952.1 -0.3-1.2-0.0
2019-Jan-20 06:00S 70°54' W 028°54'6 5.9 120 / 25952.2 2.2 -0.2-1.4 0.1
2019-Jan-20 05:00S 70°54' W 028°36'8 7.9 120 / 23952.5 -0.5-1.4-0.0
2019-Jan-20 04:00S 70°54' W 028°12'1413.7 110 / 21952.8 -0.2-1.8-0.0
2019-Jan-20 03:00S 70°54' W 027°30'1211.8 100 / 23953.3 -0.1-2.0-0.0
2019-Jan-20 02:00S 70°54' W 026°54'1413.7 100 / 25953.3 -0.0-1.6-0.0
2019-Jan-20 01:00S 70°54' W 026°12'1413.7 100 / 27953.5 -0.0-1.4 0.2
2019-Jan-20 00:00S 70°54' W 025°30'1313.2 100 / 27953.9 -0.2-1.1 0.1
2019-Jan-19 23:00S 71°00' W 024°54'1413.7 100 / 23954.2 0.1-1.3-0.0
2019-Jan-19 22:00S 71°00' W 024°12'1211.7 100 / 23954.6 0.2-0.9-0.1
2019-Jan-19 21:00S 71°00' W 023°36'1413.7 100 / 23954.9 1.1-0.1 0.1
2019-Jan-19 20:00S 71°00' W 022°54'1413.7 080 / 25954.9 0.3-0.7 0.2
2019-Jan-19 19:00S 71°00' W 022°12'1211.7 070 / 27954.7 0.3-0.8 0.3
2019-Jan-19 18:00S 71°00' W 021°36'1313.1 070 / 27954.7 2.2 0.4-0.7 0.2
2019-Jan-19 17:00S 71°06' W 021°00'1313.1 080 / 27954.8 -0.2-0.8-0.0
2019-Jan-19 16:00S 71°12' W 020°24'8 7.7 080 / 25955.2 -0.5-1.2-1.2
2019-Jan-19 15:00S 71°12' W 020°00'10 9.7 080 / 27955.9 1.1 -0.5-1.4-1.5
2019-Jan-19 14:00S 71°12' W 019°30'2 1.9 080 / 29956.1 -0.4-1.5-1.6
2019-Jan-19 13:00S 71°12' W 019°36'0 0.0 080 / 31956.1 -0.5-1.4-1.6
2019-Jan-19 12:00S 71°12' W 019°36'0 0.0 080 / 29956.7 2.2 -0.6-1.2-1.5
2019-Jan-19 11:00S 71°12' W 019°36'2 1.9 100 / 27957.3 -1.0-1.5-1.5
2019-Jan-19 10:00S 71°12' W 019°42'0 0.0 090 / 27958.2 -1.1-1.7-1.5
2019-Jan-19 09:00S 71°12' W 019°42'2 1.9 090 / 29959.1 1.1 -1.2-2.1-1.6
2019-Jan-19 08:00S 71°12' W 019°48'6 5.8 090 / 29959.8 -1.1-1.9-1.4
2019-Jan-19 07:00S 71°12' W 019°30'10 9.8 090 / 29960.6 -1.1-2.0-1.6
2019-Jan-19 06:00S 71°06' W 019°06'39 9.8 090 / 31960.9 2.2 -1.1-1.8-1.4
2019-Jan-19 02:00S 70°54' W 017°12'10 9.8 090 / 27966.2 -1.2-1.8-0.9
2019-Jan-19 01:00S 70°54' W 016°42'8 7.9 090 / 27967.7 -1.2-2.0-1.2
2019-Jan-19 00:00S 70°54' W 016°18'10 9.8 090 / 25969.1 -1.0-1.7-1.2
2019-Jan-18 23:00S 70°54' W 015°48'8 7.9 090 / 21970.2 -0.6-1.0-1.3
2019-Jan-18 22:00S 70°54' W 015°24'10 9.8 090 / 23971.4 -1.1-1.6-1.4
2019-Jan-18 21:00S 70°54' W 014°54'10 9.9 080 / 21972.5 -0.7-1.7-1.4
2019-Jan-18 20:00S 71°00' W 014°30'10 9.9 070 / 21973.4 -0.7-1.7-1.6
2019-Jan-18 19:00S 70°54' W 014°06'7 7.2 060 / 19973.7 -0.7-1.6-1.6
2019-Jan-18 18:00S 71°00' W 013°54'8 8.4 060 / 27973.6 2.2 -0.8-1.7-1.6
2019-Jan-18 17:00S 71°06' W 013°36'2 1.9 070 / 29974.3 -1.2-2.2-1.6
2019-Jan-18 16:00S 71°06' W 013°30'2 1.9 070 / 31974.1 -1.3-2.0-1.7
2019-Jan-18 15:00S 71°06' W 013°36'6 6.3 070 / 31974.6 2.2 -1.5-2.4-1.6
2019-Jan-18 14:00S 71°00' W 013°30'0 0.0 070 / 29975.5 -1.3-3.1-1.6
2019-Jan-18 13:00S 71°00' W 013°30'0 0.0 070 / 29976.1 -1.4-3.3-1.7
2019-Jan-18 12:00S 71°00' W 013°30'0 0.0 070 / 29976.710.8 -1.5-3.2-1.5
2019-Jan-18 11:00S 71°00' W 013°30'6 5.9 070 / 27977.7 -1.6-3.3-1.5
2019-Jan-18 10:00S 71°00' W 013°12'8 7.8 070 / 23978.5 -2.2-3.6-1.4
2019-Jan-18 09:00S 71°00' W 012°48'10 9.9 070 / 23979.2 1.1 -2.2-3.3-1.7
2019-Jan-18 08:00S 70°54' W 012°24'1515.0 060 / 21980.0 -1.9-3.3-1.5
2019-Jan-18 07:00S 71°00' W 011°42'1615.5 060 / 23980.8 -1.4-3.4-0.9
2019-Jan-18 06:00S 70°48' W 011°12'51 4.2 060 / 19981.210.8 -1.6-3.5-1.3
2019-Jan-17 18:00S 70°30' W 008°48'7 7.2 100 / 12988.910.8 -1.0-3.5-1.5
2019-Jan-17 17:00S 70°24' W 008°36'6 6.0 110 / 8989.6 -0.8-2.9-1.8
2019-Jan-17 16:00S 70°24' W 008°18'6 6.3 110 / 8990.1 -0.8-3.5-1.7
2019-Jan-17 15:00S 70°30' W 008°12'0 0.0 100 / 12990.727.0 -1.2-3.9-1.8
2019-Jan-17 14:00S 70°30' W 008°12'0 0.0 120 / 12991.1 -1.2-4.8-1.8
2019-Jan-17 13:00S 70°30' W 008°12'0 0.0 110 / 10991.6 -1.0-4.6-1.8
2019-Jan-17 12:00S 70°30' W 008°12'0 0.0 100 / 10992.127.0 -0.7-4.3-1.8
2019-Jan-17 11:00S 70°30' W 008°12'0 0.0 110 / 10992.3 -0.8-4.7-1.8
2019-Jan-17 10:00S 70°30' W 008°12'0 0.0 130 / 8992.7 -1.2-4.3-1.8
2019-Jan-17 09:00S 70°30' W 008°12'2 2.0 130 / 10992.927.0 -1.5-4.7-1.8
2019-Jan-17 08:00S 70°30' W 008°18'2 2.0 130 / 10993.1 -1.8-3.5-1.8
2019-Jan-17 07:00S 70°30' W 008°24'0 0.0 130 / 8993.3 -1.8-3.8-1.6
2019-Jan-17 06:00S 70°30' W 008°24'2 2.0 140 / 8993.510.8 -1.8-3.5-1.6
2019-Jan-17 05:00S 70°30' W 008°18'2 2.0 130 / 8993.6 -1.9-3.5-1.6
2019-Jan-17 04:00S 70°30' W 008°24'0 0.0 130 / 8993.9 -2.2-3.7-1.6
2019-Jan-17 03:00S 70°30' W 008°24'0 0.0 130 / 8994.0 -2.7-4.7-1.6
2019-Jan-17 02:00S 70°30' W 008°24'0 0.0 150 / 8993.9 -1.8-4.4-1.7
2019-Jan-17 01:00S 70°30' W 008°24'2 2.0 170 / 6994.1 -2.3-4.7-1.6
2019-Jan-17 00:00S 70°30' W 008°30'4 4.0 160 / 6994.1 -2.4-4.8-1.7
2019-Jan-16 23:00S 70°30' W 008°42'2 2.0 130 / 10994.2 -3.1-5.6-1.6
2019-Jan-16 22:00S 70°30' W 008°48'2 2.0 140 / 8994.2 -2.5-5.5-0.6
2019-Jan-16 21:00S 70°30' W 008°54'0 0.0 100 / 12993.9 -2.4-5.2-1.5
2019-Jan-16 20:00S 70°30' W 008°54'0 0.0 110 / 14993.7 -1.9-5.8-0.9
2019-Jan-16 19:00S 70°30' W 008°54'0 0.0 120 / 10993.4 -0.9-4.1-1.4
2019-Jan-16 18:00S 70°30' W 008°54'0 0.0 110 / 8993.127.0 -1.2-3.8-1.6
2019-Jan-16 17:00S 70°30' W 008°54'0 0.0 130 / 8992.6 -0.8-4.1-1.0
2019-Jan-16 16:00S 70°30' W 008°54'0 0.0 120 / 4992.5 -0.6-4.1-1.0
2019-Jan-16 15:00S 70°30' W 008°54'6 6.0 080 / 6992.227.0 -1.3-4.2-1.4
2019-Jan-16 14:00S 70°24' W 008°54'6 6.3 110 / 6991.5 -1.6-4.1-1.3
2019-Jan-16 13:00S 70°18' W 008°48'0 0.0 130 / 6991.2 -1.5-4.6-1.8
2019-Jan-16 12:00S 70°18' W 008°48'0 0.0 120 / 4990.727.0 -1.8-4.1-1.7
2019-Jan-16 11:00S 70°18' W 008°48'0 0.0 140 / 2990.3 -1.4-3.8-1.7
2019-Jan-16 10:00S 70°18' W 008°48'0 0.0 100 / 4989.9 -1.6-3.4-1.8
2019-Jan-16 09:00S 70°18' W 008°48'0 0.0 200 / 6989.427.0 -1.5-3.8-1.7
2019-Jan-16 08:00S 70°18' W 008°48'0 0.0 170 / 6988.9 -1.8-4.4-1.7
2019-Jan-16 07:00S 70°18' W 008°48'0 0.0 080 / 4988.5 -0.8-7.0-1.7
2019-Jan-16 06:00S 70°18' W 008°48'0 0.0 090 / 6988.427.0 -1.5-5.0-1.8
2019-Jan-16 05:00S 70°18' W 008°48'0 0.0 110 / 4988.1 -2.1-3.4-1.7
2019-Jan-16 04:00S 70°18' W 008°48'0 0.0 090 / 4987.9 -2.0-3.3-1.7
2019-Jan-16 03:00S 70°18' W 008°48'0 0.0 090 / 4987.6 -2.0-3.0-1.7
2019-Jan-16 02:00S 70°18' W 008°48'0 0.0 070 / 2987.6 -1.7-3.4-1.7
2019-Jan-16 01:00S 70°18' W 008°48'7 7.2 090 / 4987.5 -1.8-3.2-1.7
2019-Jan-16 00:00S 70°24' W 008°36'4 4.0 090 / 2987.5 -1.8-2.9-1.8
2019-Jan-15 23:00S 70°24' W 008°24'7 7.2 040 / 4987.5 -1.6-4.0-1.7
2019-Jan-15 22:00S 70°30' W 008°12'0 0.0 100 / 2987.4 -1.5-3.6-1.7
2019-Jan-15 21:00S 70°30' W 008°12'0 0.0 360 / 2987.3 -1.5-3.5-1.7
2019-Jan-15 20:00S 70°30' W 008°12'0 0.0 010 / 4987.3 -1.7-3.3-1.8
2019-Jan-15 19:00S 70°30' W 008°12'0 0.0 090 / 2987.1 -1.1-4.1-1.8
2019-Jan-15 18:00S 70°30' W 008°12'0 0.0 986.9 -1.3-4.3-1.8
2019-Jan-15 17:00S 70°30' W 008°12'0 0.0 020 / 2986.6 -1.6-4.4-1.7
2019-Jan-15 16:00S 70°30' W 008°12'0 0.0 320 / 4986.6 -1.7-4.1-1.7
2019-Jan-15 15:00S 70°30' W 008°12'0 0.0 300 / 4986.4 -1.8-4.2-1.8
2019-Jan-15 14:00S 70°30' W 008°12'0 0.0 300 / 4986.2 -1.8-3.9-1.8
2019-Jan-15 13:00S 70°30' W 008°12'0 0.0 300 / 4986.1 -1.9-4.4-1.8
2019-Jan-15 12:00S 70°30' W 008°12'0 0.0 300 / 6985.810.8 -2.3-4.5-1.8
2019-Jan-15 11:00S 70°30' W 008°12'0 0.0 290 / 6985.5 -1.7-4.0-1.8
2019-Jan-15 10:00S 70°30' W 008°12'0 0.0 300 / 8985.1 -2.3-3.0-1.8
2019-Jan-15 09:00S 70°30' W 008°12'0 0.0 240 / 4984.9 1.1 -1.9-2.5-1.8
2019-Jan-15 08:00S 70°30' W 008°12'0 0.0 240 / 4984.8 -2.3-2.8-1.8
2019-Jan-15 07:00S 70°30' W 008°12'0 0.0 270 / 6984.8 -3.1-3.1-1.8
2019-Jan-15 06:00S 70°30' W 008°12'0 0.0 240 / 10984.610.8 -3.2-3.7-1.8
2019-Jan-15 05:00S 70°30' W 008°12'0 0.0 230 / 12984.6 -4.4-5.2-1.8
2019-Jan-15 04:00S 70°30' W 008°12'0 0.0 220 / 8984.5 -4.5-5.1-1.8
2019-Jan-15 03:00S 70°30' W 008°12'0 0.0 210 / 10984.5 -3.8-4.3-1.8
2019-Jan-15 02:00S 70°30' W 008°12'0 0.0 220 / 10984.5 -3.1-3.6-1.8
2019-Jan-15 01:00S 70°30' W 008°12'0 0.0 230 / 8984.5 -2.8-3.3-1.7
2019-Jan-15 00:00S 70°30' W 008°12'0 0.0 200 / 8984.6 -2.2-4.7-1.7
2019-Jan-14 23:00S 70°30' W 008°12'0 0.0 200 / 6984.7 -2.5-3.6-1.7
2019-Jan-14 22:00S 70°30' W 008°12'0 0.0 984.8 -0.5-1.8-1.7
2019-Jan-14 21:00S 70°30' W 008°12'0 0.0 310 / 4985.1 -0.8-1.9-1.7
2019-Jan-14 20:00S 70°30' W 008°12'0 0.0 210 / 4985.4 -0.4-2.6-1.7
2019-Jan-14 19:00S 70°30' W 008°12'0 0.0 210 / 6985.6 -0.3-2.3-1.7
2019-Jan-14 18:00S 70°30' W 008°12'0 0.0 290 / 6985.710.8 1.5-1.3-1.7
2019-Jan-14 17:00S 70°30' W 008°12'0 0.0 290 / 8986.0 -0.8-1.9-1.8
2019-Jan-14 16:00S 70°30' W 008°12'0 0.0 300 / 6986.5 -0.3-2.4-1.7
2019-Jan-14 15:00S 70°30' W 008°12'0 0.0 280 / 8986.827.0 2.1-1.7-1.7
2019-Jan-14 14:00S 70°30' W 008°12'0 0.0 280 / 8986.9 2.2-2.4-1.7
2019-Jan-14 13:00S 70°30' W 008°12'0 0.0 280 / 8987.2 0.9-3.0-1.7
2019-Jan-14 12:00S 70°30' W 008°12'0 0.0 270 / 10987.527.0 -0.6-4.3-1.7
2019-Jan-14 11:00S 70°30' W 008°12'0 0.0 290 / 4987.7 2.0-1.3-1.7
2019-Jan-14 10:00S 70°30' W 008°12'0 0.0 260 / 6987.9 -1.1-3.6-1.7
2019-Jan-14 09:00S 70°30' W 008°12'0 0.0 220 / 4988.427.0 -1.0-3.3-1.7
2019-Jan-14 08:00S 70°30' W 008°12'0 0.0 220 / 6988.7 -1.4-3.1-1.7
2019-Jan-14 07:00S 70°30' W 008°12'0 0.0 200 / 10989.3 -1.4-3.6-1.7
2019-Jan-14 06:00S 70°30' W 008°12'0 0.0 180 / 6989.627.0 -1.3-5.0-1.7
2019-Jan-14 05:00S 70°30' W 008°12'0 0.0 180 / 8990.0 -1.9-4.4-1.8
2019-Jan-14 04:00S 70°30' W 008°12'0 0.0 130 / 6990.3 -1.4-3.4-1.8
2019-Jan-14 03:00S 70°30' W 008°12'0 0.0 120 / 8990.5 -1.5-2.8-1.7
2019-Jan-14 02:00S 70°30' W 008°12'0 0.0 130 / 10990.9 -1.2-3.0-1.8
2019-Jan-14 01:00S 70°30' W 008°12'0 0.0 110 / 8991.3 -0.9-4.1-1.8
2019-Jan-14 00:00S 70°30' W 008°12'0 0.0 120 / 4991.5 -1.3-3.3-1.8
2019-Jan-13 23:00S 70°30' W 008°12'0 0.0 140 / 8991.9 -1.3-3.2-1.7
2019-Jan-13 22:00S 70°30' W 008°12'0 0.0 130 / 10992.1 -1.5-3.2-1.7
2019-Jan-13 21:00S 70°30' W 008°12'0 0.0 110 / 8992.2 -1.1-3.4-1.7
2019-Jan-13 20:00S 70°30' W 008°12'0 0.0 090 / 10992.2 -0.5-2.2-1.8
2019-Jan-13 19:00S 70°30' W 008°12'0 0.0 100 / 8992.2 -0.4-2.1-1.7
2019-Jan-13 18:00S 70°30' W 008°12'0 0.0 090 / 12992.010.8 -0.3-2.3-1.7
2019-Jan-13 17:00S 70°30' W 008°12'   090 / 12991.8 -0.3-2.6-1.7
Track history (hours):
 
Tides and Currents Weather Stations Pressure Air Temp Water Temp Dewpoint Dewpoint Depression Visibility Wind Speed Wind Dir Waves Ship Positions

Oceanographic research ship Polarstern (Germany)

Detailed information on ship capabilities available from University of Delaware's Ocean Information Center and ARCUS's ALIAS (Arctic Logistics Information and Support) project.

Last reported at 2019-Jan-23 17:00 UTC. Time now 2019-Jan-23 18:08 UTC.
Position S 65°42' W 036°42'.

Length 117.9 m; beam 25 m; draft 10.7 m.

Type: Other ship. MMSI: 211202460.

Wind from 240 at 16 knots

Barometer 984.5 mb
Air temperature -1.9 ° C
Dewpoint -3.6 ° C
Water temperature -1.0 ° C

Date/timePositionNaut miles runAvg speedWind from/ knotsBaromVisibWave heightAir tempDewpointWater temp
2019-Jan-23 17:00S 65°42' W 036°42'0 0.0 240 / 16984.5 -1.9-3.6-1.0
2019-Jan-23 16:00S 65°42' W 036°42'0 0.0 240 / 14984.6 -2.1-3.7-1.0
2019-Jan-23 15:00S 65°42' W 036°42'0 0.0 250 / 16984.710.8 -1.9-3.8-1.1
2019-Jan-23 14:00S 65°42' W 036°42'0 0.0 240 / 14984.9 -1.9-3.8-1.0
2019-Jan-23 13:00S 65°42' W 036°42'0 0.0 220 / 16984.8 -1.9-4.3-1.1
2019-Jan-23 12:00S 65°42' W 036°42'0 0.0 230 / 14984.810.8 -1.6-4.2-1.0
2019-Jan-23 11:00S 65°42' W 036°42'0 0.0 230 / 14984.8 -1.8-4.8-1.1
2019-Jan-23 10:00S 65°42' W 036°42'2 2.5 220 / 14984.9 -1.9-4.5-1.1
2019-Jan-23 09:00S 65°42' W 036°36'0 0.0 220 / 14985.210.8 -2.1-4.7-1.1
2019-Jan-23 08:00S 65°42' W 036°36'0 0.0 240 / 16985.2 -2.0-5.1-1.0
2019-Jan-23 07:00S 65°42' W 036°36'0 0.0 230 / 14985.4 -2.0-4.8-1.1
2019-Jan-23 06:00S 65°42' W 036°36'0 0.0 220 / 14985.510.8 -2.2-5.1-1.1
2019-Jan-23 05:00S 65°42' W 036°36'0 0.0 240 / 16985.7 -2.6-5.4-1.1
2019-Jan-23 04:00S 65°42' W 036°36'2 2.5 240 / 19985.7 -2.7-5.5-1.1
2019-Jan-23 03:00S 65°42' W 036°30'1212.3 230 / 21985.5 -2.5-5.7-1.1
2019-Jan-23 02:00S 65°42' W 036°00'1413.7 250 / 21985.4 -2.3-5.0-0.9
2019-Jan-23 01:00S 65°48' W 035°30'10 9.8 250 / 23985.4 -2.4-4.7-0.9
2019-Jan-23 00:00S 65°48' W 035°06'1212.3 250 / 23985.1 -2.4-5.2-0.8
2019-Jan-22 23:00S 65°48' W 034°36'5 4.9 250 / 23984.8 -2.3-5.2-0.8
2019-Jan-22 22:00S 65°48' W 034°24'0 0.0 250 / 21985.1 -2.1-5.0-0.7
2019-Jan-22 21:00S 65°48' W 034°24'0 0.0 250 / 25985.2 -2.0-6.1-0.7
2019-Jan-22 20:00S 65°48' W 034°24'0 0.0 250 / 25985.1 -2.1-6.0-0.7
2019-Jan-22 19:00S 65°48' W 034°24'0 0.0 250 / 25985.1 -2.0-5.3-0.6
2019-Jan-22 18:00S 65°48' W 034°24'1211.5 270 / 25984.510.8 -2.4-5.6-0.7
2019-Jan-22 17:00S 65°54' W 034°00'10 9.8 270 / 27983.6 -2.5-7.1-0.7
2019-Jan-22 16:00S 65°54' W 033°36'1111.5 260 / 27983.3 -2.4-6.1-0.6
2019-Jan-22 15:00S 66°00' W 033°12'1212.2 270 / 27982.710.8 -2.2-4.8-0.5
2019-Jan-22 14:00S 66°00' W 032°42'1111.4 270 / 27982.2 -2.1-5.6-0.6
2019-Jan-22 13:00S 66°06' W 032°18'10 9.7 270 / 27981.3 -1.7-5.0-0.6
2019-Jan-22 12:00S 66°06' W 031°54'10 9.7 270 / 27980.910.8 -1.8-5.0-0.7
2019-Jan-22 11:00S 66°06' W 031°30'1111.4 270 / 29980.3 -1.8-4.8-0.6
2019-Jan-22 10:00S 66°12' W 031°06'7 7.3 270 / 29980.0 -1.8-4.7-0.6
2019-Jan-22 09:00S 66°12' W 030°48'1111.4 270 / 29979.5 5.4 -1.7-5.1-0.7
2019-Jan-22 08:00S 66°18' W 030°24'10 9.6 270 / 29978.7 -1.7-4.8-0.5
2019-Jan-22 07:00S 66°18' W 030°00'10 9.6 280 / 31978.4 -1.8-4.7-0.3
2019-Jan-22 06:00S 66°18' W 029°36'9 9.4 270 / 31977.2 5.4 -1.7-4.6-0.3
2019-Jan-22 05:00S 66°24' W 029°18'10 9.6 270 / 31976.8 -1.6-4.3-0.3
2019-Jan-22 04:00S 66°24' W 028°54'10 9.6 270 / 33976.1 -1.5-3.4-0.3
2019-Jan-22 03:00S 66°24' W 028°30'9 9.4 270 / 31975.3 -1.1-3.0-0.2
2019-Jan-22 02:00S 66°30' W 028°12'10 9.6 270 / 31973.7 -0.9-2.5-0.0
2019-Jan-22 01:00S 66°30' W 027°48'9 9.3 270 / 31972.9 -0.8-2.4-0.0
2019-Jan-22 00:00S 66°36' W 027°30'10 9.5 280 / 29971.7 -0.6-2.2-0.0
2019-Jan-21 23:00S 66°36' W 027°06'0 0.0 270 / 31971.1 -0.5-2.1 0.1
2019-Jan-21 22:00S 66°36' W 027°06'0 0.0 270 / 31970.1 -0.5-1.9 0.2
2019-Jan-21 21:00S 66°36' W 027°06'0 0.0 270 / 29969.2 -0.4-1.9 0.2
2019-Jan-21 20:00S 66°36' W 027°06'0 0.0 280 / 31968.0 -0.4-1.7 0.2
2019-Jan-21 19:00S 66°36' W 027°06'2 2.4 270 / 31967.5 -0.5-1.6 0.2
2019-Jan-21 18:00S 66°36' W 027°00'2 2.4 280 / 29966.2 5.4 -0.2-1.2 0.2
2019-Jan-21 17:00S 66°36' W 027°06'0 0.0 280 / 31965.1 -0.2-1.6 0.2
2019-Jan-21 16:00S 66°36' W 027°06'0 0.0 270 / 31963.9 -0.2-1.2 0.2
2019-Jan-21 15:00S 66°36' W 027°06'1212.2 280 / 31962.9 2.2 -0.2-1.0 0.2
2019-Jan-21 14:00S 66°48' W 027°12'1212.2 280 / 31960.6 -0.1-1.3 0.2
2019-Jan-21 13:00S 67°00' W 027°18'1818.2 280 / 29958.1 -0.1-0.9 0.2
2019-Jan-21 12:00S 67°18' W 027°24'1212.2 280 / 27956.5 2.2 -0.1-1.3-0.1
2019-Jan-21 11:00S 67°30' W 027°30'1212.2 280 / 25953.7 -0.0-0.8 0.3
2019-Jan-21 10:00S 67°42' W 027°36'1818.1 280 / 23952.7 -0.1-1.1 0.2
2019-Jan-21 09:00S 68°00' W 027°42'1212.2 280 / 25951.2 2.2 -0.5-1.2 0.1
2019-Jan-21 08:00S 68°12' W 027°48'1212.0 280 / 19949.3 -0.2-0.7 0.1
2019-Jan-21 07:00S 68°24' W 027°48'1212.2 270 / 16948.4 -0.4-0.7 0.2
2019-Jan-21 06:00S 68°36' W 027°54'1212.2 270 / 12946.810.8 -0.5-0.8-0.0
2019-Jan-21 05:00S 68°48' W 028°00'1212.2 270 / 8946.2 -0.5-0.7-0.0
2019-Jan-21 04:00S 69°00' W 028°06'1212.2 150 / 6945.7 -0.4-0.8-0.0
2019-Jan-21 03:00S 69°12' W 028°12'1212.2 130 / 12945.0 -0.3-0.7-0.1
2019-Jan-21 02:00S 69°24' W 028°18'1212.0 130 / 16945.2 -0.3-0.8-0.1
2019-Jan-21 01:00S 69°36' W 028°18'1212.2 140 / 21945.1 -0.3-0.6-0.1
2019-Jan-21 00:00S 69°48' W 028°24'1212.2 130 / 23945.6 -0.1-0.5-0.2
2019-Jan-20 23:00S 70°00' W 028°30'6 6.3 130 / 25946.4 -0.2-0.7-0.1
2019-Jan-20 22:00S 70°06' W 028°36'1212.2 130 / 27947.1 -0.3-0.9-0.1
2019-Jan-20 21:00S 70°18' W 028°42'1212.0 130 / 29948.3 -0.1-1.1-0.2
2019-Jan-20 20:00S 70°30' W 028°42'1212.2 120 / 29949.4 -0.0-1.2 0.1
2019-Jan-20 19:00S 70°42' W 028°48'6 6.0 120 / 29950.1 -0.0-1.6-0.0
2019-Jan-20 18:00S 70°48' W 028°48'6 6.0 110 / 31951.5 2.2 0.1-1.7 0.1
2019-Jan-20 17:00S 70°54' W 028°48'2 2.0 100 / 33951.4 0.4-1.7 0.1
2019-Jan-20 16:00S 70°54' W 028°54'2 2.0 110 / 31951.7 0.3-1.9 0.1
2019-Jan-20 15:00S 70°54' W 028°48'0 0.0 100 / 31951.4 2.2 0.1-1.4 0.1
2019-Jan-20 14:00S 70°54' W 028°48'0 0.0 110 / 29951.7 -0.1-1.5 0.1
2019-Jan-20 13:00S 70°54' W 028°48'4 3.9 100 / 31952.2 0.3-1.7 0.1
2019-Jan-20 12:00S 70°54' W 029°00'2 2.0 110 / 29952.0 2.2 -0.2-1.0-0.0
2019-Jan-20 11:00S 70°54' W 028°54'2 2.0 100 / 29951.3 0.4-1.4-0.0
2019-Jan-20 10:00S 70°54' W 029°00'0 0.0 110 / 27951.7 -0.0-1.3-0.0
2019-Jan-20 09:00S 70°54' W 029°00'0 0.0 110 / 25951.9 2.2 -0.3-1.1 0.1
2019-Jan-20 08:00S 70°54' W 029°00'2 2.0 110 / 25951.9 -0.0-1.1-0.0
2019-Jan-20 07:00S 70°54' W 028°54'0 0.0 120 / 23952.1 -0.3-1.2-0.0
2019-Jan-20 06:00S 70°54' W 028°54'6 5.9 120 / 25952.2 2.2 -0.2-1.4 0.1
2019-Jan-20 05:00S 70°54' W 028°36'8 7.9 120 / 23952.5 -0.5-1.4-0.0
2019-Jan-20 04:00S 70°54' W 028°12'1413.7 110 / 21952.8 -0.2-1.8-0.0
2019-Jan-20 03:00S 70°54' W 027°30'1211.8 100 / 23953.3 -0.1-2.0-0.0
2019-Jan-20 02:00S 70°54' W 026°54'1413.7 100 / 25953.3 -0.0-1.6-0.0
2019-Jan-20 01:00S 70°54' W 026°12'1413.7 100 / 27953.5 -0.0-1.4 0.2
2019-Jan-20 00:00S 70°54' W 025°30'1313.2 100 / 27953.9 -0.2-1.1 0.1
2019-Jan-19 23:00S 71°00' W 024°54'1413.7 100 / 23954.2 0.1-1.3-0.0
2019-Jan-19 22:00S 71°00' W 024°12'1211.7 100 / 23954.6 0.2-0.9-0.1
2019-Jan-19 21:00S 71°00' W 023°36'1413.7 100 / 23954.9 1.1-0.1 0.1
2019-Jan-19 20:00S 71°00' W 022°54'1413.7 080 / 25954.9 0.3-0.7 0.2
2019-Jan-19 19:00S 71°00' W 022°12'1211.7 070 / 27954.7 0.3-0.8 0.3
2019-Jan-19 18:00S 71°00' W 021°36'1313.1 070 / 27954.7 2.2 0.4-0.7 0.2
2019-Jan-19 17:00S 71°06' W 021°00'1313.1 080 / 27954.8 -0.2-0.8-0.0
2019-Jan-19 16:00S 71°12' W 020°24'8 7.7 080 / 25955.2 -0.5-1.2-1.2
2019-Jan-19 15:00S 71°12' W 020°00'10 9.7 080 / 27955.9 1.1 -0.5-1.4-1.5
2019-Jan-19 14:00S 71°12' W 019°30'2 1.9 080 / 29956.1 -0.4-1.5-1.6
2019-Jan-19 13:00S 71°12' W 019°36'0 0.0 080 / 31956.1 -0.5-1.4-1.6
2019-Jan-19 12:00S 71°12' W 019°36'0 0.0 080 / 29956.7 2.2 -0.6-1.2-1.5
2019-Jan-19 11:00S 71°12' W 019°36'2 1.9 100 / 27957.3 -1.0-1.5-1.5
2019-Jan-19 10:00S 71°12' W 019°42'0 0.0 090 / 27958.2 -1.1-1.7-1.5
2019-Jan-19 09:00S 71°12' W 019°42'2 1.9 090 / 29959.1 1.1 -1.2-2.1-1.6
2019-Jan-19 08:00S 71°12' W 019°48'6 5.8 090 / 29959.8 -1.1-1.9-1.4
2019-Jan-19 07:00S 71°12' W 019°30'10 9.8 090 / 29960.6 -1.1-2.0-1.6
2019-Jan-19 06:00S 71°06' W 019°06'39 9.8 090 / 31960.9 2.2 -1.1-1.8-1.4
2019-Jan-19 02:00S 70°54' W 017°12'10 9.8 090 / 27966.2 -1.2-1.8-0.9
2019-Jan-19 01:00S 70°54' W 016°42'8 7.9 090 / 27967.7 -1.2-2.0-1.2
2019-Jan-19 00:00S 70°54' W 016°18'10 9.8 090 / 25969.1 -1.0-1.7-1.2
2019-Jan-18 23:00S 70°54' W 015°48'8 7.9 090 / 21970.2 -0.6-1.0-1.3
2019-Jan-18 22:00S 70°54' W 015°24'10 9.8 090 / 23971.4 -1.1-1.6-1.4
2019-Jan-18 21:00S 70°54' W 014°54'10 9.9 080 / 21972.5 -0.7-1.7-1.4
2019-Jan-18 20:00S 71°00' W 014°30'10 9.9 070 / 21973.4 -0.7-1.7-1.6
2019-Jan-18 19:00S 70°54' W 014°06'7 7.2 060 / 19973.7 -0.7-1.6-1.6
2019-Jan-18 18:00S 71°00' W 013°54'8 8.4 060 / 27973.6 2.2 -0.8-1.7-1.6
2019-Jan-18 17:00S 71°06' W 013°36'2 1.9 070 / 29974.3 -1.2-2.2-1.6
2019-Jan-18 16:00S 71°06' W 013°30'2 1.9 070 / 31974.1 -1.3-2.0-1.7
2019-Jan-18 15:00S 71°06' W 013°36'6 6.3 070 / 31974.6 2.2 -1.5-2.4-1.6
2019-Jan-18 14:00S 71°00' W 013°30'0 0.0 070 / 29975.5 -1.3-3.1-1.6
2019-Jan-18 13:00S 71°00' W 013°30'0 0.0 070 / 29976.1 -1.4-3.3-1.7
2019-Jan-18 12:00S 71°00' W 013°30'0 0.0 070 / 29976.710.8 -1.5-3.2-1.5
2019-Jan-18 11:00S 71°00' W 013°30'6 5.9 070 / 27977.7 -1.6-3.3-1.5
2019-Jan-18 10:00S 71°00' W 013°12'8 7.8 070 / 23978.5 -2.2-3.6-1.4
2019-Jan-18 09:00S 71°00' W 012°48'10 9.9 070 / 23979.2 1.1 -2.2-3.3-1.7
2019-Jan-18 08:00S 70°54' W 012°24'1515.0 060 / 21980.0 -1.9-3.3-1.5
2019-Jan-18 07:00S 71°00' W 011°42'1615.5 060 / 23980.8 -1.4-3.4-0.9
2019-Jan-18 06:00S 70°48' W 011°12'51 4.2 060 / 19981.210.8 -1.6-3.5-1.3
2019-Jan-17 18:00S 70°30' W 008°48'7 7.2 100 / 12988.910.8 -1.0-3.5-1.5
2019-Jan-17 17:00S 70°24' W 008°36'6 6.0 110 / 8989.6 -0.8-2.9-1.8
2019-Jan-17 16:00S 70°24' W 008°18'6 6.3 110 / 8990.1 -0.8-3.5-1.7
2019-Jan-17 15:00S 70°30' W 008°12'0 0.0 100 / 12990.727.0 -1.2-3.9-1.8
2019-Jan-17 14:00S 70°30' W 008°12'0 0.0 120 / 12991.1 -1.2-4.8-1.8
2019-Jan-17 13:00S 70°30' W 008°12'0 0.0 110 / 10991.6 -1.0-4.6-1.8
2019-Jan-17 12:00S 70°30' W 008°12'0 0.0 100 / 10992.127.0 -0.7-4.3-1.8
2019-Jan-17 11:00S 70°30' W 008°12'0 0.0 110 / 10992.3 -0.8-4.7-1.8
2019-Jan-17 10:00S 70°30' W 008°12'0 0.0 130 / 8992.7 -1.2-4.3-1.8
2019-Jan-17 09:00S 70°30' W 008°12'2 2.0 130 / 10992.927.0 -1.5-4.7-1.8
2019-Jan-17 08:00S 70°30' W 008°18'2 2.0 130 / 10993.1 -1.8-3.5-1.8
2019-Jan-17 07:00S 70°30' W 008°24'0 0.0 130 / 8993.3 -1.8-3.8-1.6
2019-Jan-17 06:00S 70°30' W 008°24'2 2.0 140 / 8993.510.8 -1.8-3.5-1.6
2019-Jan-17 05:00S 70°30' W 008°18'2 2.0 130 / 8993.6 -1.9-3.5-1.6
2019-Jan-17 04:00S 70°30' W 008°24'0 0.0 130 / 8993.9 -2.2-3.7-1.6
2019-Jan-17 03:00S 70°30' W 008°24'0 0.0 130 / 8994.0 -2.7-4.7-1.6
2019-Jan-17 02:00S 70°30' W 008°24'0 0.0 150 / 8993.9 -1.8-4.4-1.7
2019-Jan-17 01:00S 70°30' W 008°24'2 2.0 170 / 6994.1 -2.3-4.7-1.6
2019-Jan-17 00:00S 70°30' W 008°30'4 4.0 160 / 6994.1 -2.4-4.8-1.7
2019-Jan-16 23:00S 70°30' W 008°42'2 2.0 130 / 10994.2 -3.1-5.6-1.6
2019-Jan-16 22:00S 70°30' W 008°48'2 2.0 140 / 8994.2 -2.5-5.5-0.6
2019-Jan-16 21:00S 70°30' W 008°54'0 0.0 100 / 12993.9 -2.4-5.2-1.5
2019-Jan-16 20:00S 70°30' W 008°54'0 0.0 110 / 14993.7 -1.9-5.8-0.9
2019-Jan-16 19:00S 70°30' W 008°54'0 0.0 120 / 10993.4 -0.9-4.1-1.4
2019-Jan-16 18:00S 70°30' W 008°54'0 0.0 110 / 8993.127.0 -1.2-3.8-1.6
2019-Jan-16 17:00S 70°30' W 008°54'0 0.0 130 / 8992.6 -0.8-4.1-1.0
2019-Jan-16 16:00S 70°30' W 008°54'0 0.0 120 / 4992.5 -0.6-4.1-1.0
2019-Jan-16 15:00S 70°30' W 008°54'6 6.0 080 / 6992.227.0 -1.3-4.2-1.4
2019-Jan-16 14:00S 70°24' W 008°54'6 6.3 110 / 6991.5 -1.6-4.1-1.3
2019-Jan-16 13:00S 70°18' W 008°48'0 0.0 130 / 6991.2 -1.5-4.6-1.8
2019-Jan-16 12:00S 70°18' W 008°48'0 0.0 120 / 4990.727.0 -1.8-4.1-1.7
2019-Jan-16 11:00S 70°18' W 008°48'0 0.0 140 / 2990.3 -1.4-3.8-1.7
2019-Jan-16 10:00S 70°18' W 008°48'0 0.0 100 / 4989.9 -1.6-3.4-1.8
2019-Jan-16 09:00S 70°18' W 008°48'0 0.0 200 / 6989.427.0 -1.5-3.8-1.7
2019-Jan-16 08:00S 70°18' W 008°48'0 0.0 170 / 6988.9 -1.8-4.4-1.7
2019-Jan-16 07:00S 70°18' W 008°48'0 0.0 080 / 4988.5 -0.8-7.0-1.7
2019-Jan-16 06:00S 70°18' W 008°48'0 0.0 090 / 6988.427.0 -1.5-5.0-1.8
2019-Jan-16 05:00S 70°18' W 008°48'0 0.0 110 / 4988.1 -2.1-3.4-1.7
2019-Jan-16 04:00S 70°18' W 008°48'0 0.0 090 / 4987.9 -2.0-3.3-1.7
2019-Jan-16 03:00S 70°18' W 008°48'0 0.0 090 / 4987.6 -2.0-3.0-1.7
2019-Jan-16 02:00S 70°18' W 008°48'0 0.0 070 / 2987.6 -1.7-3.4-1.7
2019-Jan-16 01:00S 70°18' W 008°48'7 7.2 090 / 4987.5 -1.8-3.2-1.7
2019-Jan-16 00:00S 70°24' W 008°36'4 4.0 090 / 2987.5 -1.8-2.9-1.8
2019-Jan-15 23:00S 70°24' W 008°24'7 7.2 040 / 4987.5 -1.6-4.0-1.7
2019-Jan-15 22:00S 70°30' W 008°12'0 0.0 100 / 2987.4 -1.5-3.6-1.7
2019-Jan-15 21:00S 70°30' W 008°12'0 0.0 360 / 2987.3 -1.5-3.5-1.7
2019-Jan-15 20:00S 70°30' W 008°12'0 0.0 010 / 4987.3 -1.7-3.3-1.8
2019-Jan-15 19:00S 70°30' W 008°12'0 0.0 090 / 2987.1 -1.1-4.1-1.8
2019-Jan-15 18:00S 70°30' W 008°12'0 0.0 986.9 -1.3-4.3-1.8
2019-Jan-15 17:00S 70°30' W 008°12'0 0.0 020 / 2986.6 -1.6-4.4-1.7
2019-Jan-15 16:00S 70°30' W 008°12'0 0.0 320 / 4986.6 -1.7-4.1-1.7
2019-Jan-15 15:00S 70°30' W 008°12'0 0.0 300 / 4986.4 -1.8-4.2-1.8
2019-Jan-15 14:00S 70°30' W 008°12'0 0.0 300 / 4986.2 -1.8-3.9-1.8
2019-Jan-15 13:00S 70°30' W 008°12'0 0.0 300 / 4986.1 -1.9-4.4-1.8
2019-Jan-15 12:00S 70°30' W 008°12'0 0.0 300 / 6985.810.8 -2.3-4.5-1.8
2019-Jan-15 11:00S 70°30' W 008°12'0 0.0 290 / 6985.5 -1.7-4.0-1.8
2019-Jan-15 10:00S 70°30' W 008°12'0 0.0 300 / 8985.1 -2.3-3.0-1.8
2019-Jan-15 09:00S 70°30' W 008°12'0 0.0 240 / 4984.9 1.1 -1.9-2.5-1.8
2019-Jan-15 08:00S 70°30' W 008°12'0 0.0 240 / 4984.8 -2.3-2.8-1.8
2019-Jan-15 07:00S 70°30' W 008°12'0 0.0 270 / 6984.8 -3.1-3.1-1.8
2019-Jan-15 06:00S 70°30' W 008°12'0 0.0 240 / 10984.610.8 -3.2-3.7-1.8
2019-Jan-15 05:00S 70°30' W 008°12'0 0.0 230 / 12984.6 -4.4-5.2-1.8
2019-Jan-15 04:00S 70°30' W 008°12'0 0.0 220 / 8984.5 -4.5-5.1-1.8
2019-Jan-15 03:00S 70°30' W 008°12'0 0.0 210 / 10984.5 -3.8-4.3-1.8
2019-Jan-15 02:00S 70°30' W 008°12'0 0.0 220 / 10984.5 -3.1-3.6-1.8
2019-Jan-15 01:00S 70°30' W 008°12'0 0.0 230 / 8984.5 -2.8-3.3-1.7
2019-Jan-15 00:00S 70°30' W 008°12'0 0.0 200 / 8984.6 -2.2-4.7-1.7
2019-Jan-14 23:00S 70°30' W 008°12'0 0.0 200 / 6984.7 -2.5-3.6-1.7
2019-Jan-14 22:00S 70°30' W 008°12'0 0.0 984.8 -0.5-1.8-1.7
2019-Jan-14 21:00S 70°30' W 008°12'0 0.0 310 / 4985.1 -0.8-1.9-1.7
2019-Jan-14 20:00S 70°30' W 008°12'0 0.0 210 / 4985.4 -0.4-2.6-1.7
2019-Jan-14 19:00S 70°30' W 008°12'0 0.0 210 / 6985.6 -0.3-2.3-1.7
2019-Jan-14 18:00S 70°30' W 008°12'0 0.0 290 / 6985.710.8 1.5-1.3-1.7
2019-Jan-14 17:00S 70°30' W 008°12'0 0.0 290 / 8986.0 -0.8-1.9-1.8
2019-Jan-14 16:00S 70°30' W 008°12'0 0.0 300 / 6986.5 -0.3-2.4-1.7
2019-Jan-14 15:00S 70°30' W 008°12'0 0.0 280 / 8986.827.0 2.1-1.7-1.7
2019-Jan-14 14:00S 70°30' W 008°12'0 0.0 280 / 8986.9 2.2-2.4-1.7
2019-Jan-14 13:00S 70°30' W 008°12'0 0.0 280 / 8987.2 0.9-3.0-1.7
2019-Jan-14 12:00S 70°30' W 008°12'0 0.0 270 / 10987.527.0 -0.6-4.3-1.7
2019-Jan-14 11:00S 70°30' W 008°12'0 0.0 290 / 4987.7 2.0-1.3-1.7
2019-Jan-14 10:00S 70°30' W 008°12'0 0.0 260 / 6987.9 -1.1-3.6-1.7
2019-Jan-14 09:00S 70°30' W 008°12'0 0.0 220 / 4988.427.0 -1.0-3.3-1.7
2019-Jan-14 08:00S 70°30' W 008°12'0 0.0 220 / 6988.7 -1.4-3.1-1.7
2019-Jan-14 07:00S 70°30' W 008°12'0 0.0 200 / 10989.3 -1.4-3.6-1.7
2019-Jan-14 06:00S 70°30' W 008°12'0 0.0 180 / 6989.627.0 -1.3-5.0-1.7
2019-Jan-14 05:00S 70°30' W 008°12'0 0.0 180 / 8990.0 -1.9-4.4-1.8
2019-Jan-14 04:00S 70°30' W 008°12'0 0.0 130 / 6990.3 -1.4-3.4-1.8
2019-Jan-14 03:00S 70°30' W 008°12'0 0.0 120 / 8990.5 -1.5-2.8-1.7
2019-Jan-14 02:00S 70°30' W 008°12'0 0.0 130 / 10990.9 -1.2-3.0-1.8
2019-Jan-14 01:00S 70°30' W 008°12'0 0.0 110 / 8991.3 -0.9-4.1-1.8
2019-Jan-14 00:00S 70°30' W 008°12'0 0.0 120 / 4991.5 -1.3-3.3-1.8
2019-Jan-13 23:00S 70°30' W 008°12'0 0.0 140 / 8991.9 -1.3-3.2-1.7
2019-Jan-13 22:00S 70°30' W 008°12'0 0.0 130 / 10992.1 -1.5-3.2-1.7
2019-Jan-13 21:00S 70°30' W 008°12'0 0.0 110 / 8992.2 -1.1-3.4-1.7
2019-Jan-13 20:00S 70°30' W 008°12'0 0.0 090 / 10992.2 -0.5-2.2-1.8
2019-Jan-13 19:00S 70°30' W 008°12'0 0.0 100 / 8992.2 -0.4-2.1-1.7
2019-Jan-13 18:00S 70°30' W 008°12'0 0.0 090 / 12992.010.8 -0.3-2.3-1.7
2019-Jan-13 17:00S 70°30' W 008°12'   090 / 12991.8 -0.3-2.6-1.7

Dump ship's entire track history